Saltash — PF8941 — position and weather

sailwx.info

Track history (hours):
 
Tides and Currents Weather Stations Pressure Air Temp Water Temp Dewpoint Dewpoint Depression Visibility Wind Speed Wind Dir Waves Ship Positions

Saltash

Last reported at 2016-Jun-27 06:16 UTC. Time now 2016-Jun-28 15:18 UTC.
Position N 52°31' E 004°30'.

Length 13 m.

Type: Sailing vessel. MMSI: 244060614.

Date/timePositionNaut miles runAvg speedWind from/ knotsBaromVisibWave heightAir tempDewpointWater temp
2016-Jun-27 06:16N 52°31' E 004°30'4 5.6
2016-Jun-27 05:33N 52°28' E 004°34'0 0.0
2016-Jun-26 15:29N 52°28' E 004°34'2 2.4
2016-Jun-26 14:28N 52°26' E 004°30'7 5.4
2016-Jun-26 13:07N 52°19' E 004°26'3 6.0
2016-Jun-26 12:33N 52°17' E 004°23'6 6.4
2016-Jun-26 11:33N 52°11' E 004°17'6 5.9
2016-Jun-26 10:30N 52°06' E 004°12'6 6.4
2016-Jun-26 09:33N 52°02' E 004°05'13 5.2
2016-Jun-26 07:07N 51°54' E 004°22'3 4.8
2016-Jun-26 06:31N 51°54' E 004°26'  
Track history (hours):
 
Tides and Currents Weather Stations Pressure Air Temp Water Temp Dewpoint Dewpoint Depression Visibility Wind Speed Wind Dir Waves Ship Positions

Saltash

Last reported at 2016-Jun-27 06:16 UTC. Time now 2016-Jun-28 15:18 UTC.
Position N 52°31' E 004°30'.

Length 13 m.

Type: Sailing vessel. MMSI: 244060614.

Date/timePositionNaut miles runAvg speedWind from/ knotsBaromVisibWave heightAir tempDewpointWater temp
2016-Jun-27 06:16N 52°31' E 004°30'4 5.6
2016-Jun-27 05:33N 52°28' E 004°34'0 0.0
2016-Jun-26 15:29N 52°28' E 004°34'2 2.4
2016-Jun-26 14:28N 52°26' E 004°30'7 5.4
2016-Jun-26 13:07N 52°19' E 004°26'3 6.0
2016-Jun-26 12:33N 52°17' E 004°23'6 6.4
2016-Jun-26 11:33N 52°11' E 004°17'6 5.9
2016-Jun-26 10:30N 52°06' E 004°12'6 6.4
2016-Jun-26 09:33N 52°02' E 004°05'13 5.2
2016-Jun-26 07:07N 51°54' E 004°22'3 4.8
2016-Jun-26 06:31N 51°54' E 004°26'  

Dump ship's entire track history